createdAt,value
2018-10-16T00:00:52.213Z,12.23
2018-10-16T00:03:21.622Z,13.03
2018-10-16T00:05:51.043Z,12.30
2018-10-16T00:08:20.475Z,12.35
2018-10-16T00:10:49.852Z,12.60
2018-10-16T00:13:19.228Z,11.83
2018-10-16T00:15:48.716Z,12.55
2018-10-16T00:18:18.135Z,13.65
2018-10-16T00:20:47.556Z,11.73
2018-10-16T00:23:16.908Z,13.45
2018-10-16T00:25:46.285Z,14.05
2018-10-16T00:28:15.669Z,12.35
2018-10-16T00:30:45.050Z,13.18
2018-10-16T00:33:14.477Z,11.95
2018-10-16T00:35:43.863Z,13.45
2018-10-16T00:38:13.254Z,11.68
2018-10-16T00:40:42.796Z,13.25
2018-10-16T00:43:12.267Z,11.93
2018-10-16T00:45:41.870Z,13.70
2018-10-16T00:48:11.288Z,13.05
2018-10-16T00:50:40.719Z,12.30
2018-10-16T00:53:10.142Z,12.45
2018-10-16T00:55:39.556Z,12.50
2018-10-16T00:58:08.987Z,12.35
2018-10-16T01:00:38.381Z,14.00
2018-10-16T01:03:07.798Z,12.55
2018-10-16T01:05:37.201Z,13.50
2018-10-16T01:08:06.781Z,12.53
2018-10-16T01:10:36.188Z,11.73
2018-10-16T01:13:05.610Z,12.75
2018-10-16T01:15:35.028Z,12.25
2018-10-16T01:18:04.445Z,11.88
2018-10-16T01:20:33.835Z,12.15
2018-10-16T01:23:03.254Z,12.58
2018-10-16T01:25:32.633Z,11.90
2018-10-16T01:28:02.082Z,12.82
2018-10-16T01:30:31.471Z,12.60
2018-10-16T01:33:00.961Z,11.70
2018-10-16T01:35:30.397Z,11.97
2018-10-16T01:37:59.819Z,13.35
2018-10-16T01:40:29.271Z,13.15
2018-10-16T01:42:58.690Z,12.80
2018-10-16T01:45:28.094Z,13.00
2018-10-16T01:47:57.517Z,13.35
2018-10-16T01:50:26.956Z,12.68
2018-10-16T01:52:56.390Z,11.88
2018-10-16T01:55:25.773Z,11.22
2018-10-16T01:57:55.181Z,12.55
2018-10-16T02:00:24.666Z,12.40
2018-10-16T02:02:54.230Z,12.30
2018-10-16T02:05:23.846Z,13.13
2018-10-16T02:07:53.259Z,12.47
2018-10-16T02:10:22.669Z,12.35
2018-10-16T02:12:52.125Z,13.03
2018-10-16T02:15:21.537Z,12.03
2018-10-16T02:17:50.992Z,13.18
2018-10-16T02:20:20.301Z,11.85
2018-10-16T02:22:49.736Z,11.78
2018-10-16T02:25:19.161Z,12.40
2018-10-16T02:27:48.600Z,13.15
2018-10-16T02:33:28.424Z,12.03
2018-10-16T02:35:57.864Z,12.82
2018-10-16T02:38:27.270Z,12.37
2018-10-16T02:40:56.682Z,11.57
2018-10-16T02:43:26.047Z,12.55
2018-10-16T02:45:55.491Z,11.68
2018-10-16T02:48:24.926Z,12.73
2018-10-16T02:50:54.347Z,12.35
2018-10-16T02:53:23.782Z,12.70
2018-10-16T02:55:53.177Z,12.73
2018-10-16T02:58:22.524Z,12.55
2018-10-16T03:00:52.057Z,11.20
2018-10-16T03:03:21.454Z,12.85
2018-10-16T03:05:50.833Z,13.05
2018-10-16T03:08:20.331Z,12.50
2018-10-16T03:10:49.739Z,13.22
2018-10-16T03:13:19.198Z,12.55
2018-10-16T03:15:48.590Z,13.48
2018-10-16T03:18:17.999Z,12.43
2018-10-16T03:20:47.423Z,11.93
2018-10-16T03:23:17.004Z,11.93
2018-10-16T03:25:46.432Z,13.43
2018-10-16T03:28:15.888Z,11.97
2018-10-16T03:30:45.414Z,12.05
2018-10-16T03:33:14.847Z,13.25
2018-10-16T03:35:44.244Z,12.13
2018-10-16T03:38:13.711Z,12.63
2018-10-16T03:40:43.192Z,11.88
2018-10-16T03:43:12.567Z,12.90
2018-10-16T03:45:41.992Z,12.88
2018-10-16T03:48:11.369Z,13.43
2018-10-16T03:50:40.848Z,12.60
2018-10-16T03:53:10.187Z,13.10
2018-10-16T03:55:39.554Z,11.85
2018-10-16T03:58:09.026Z,12.33
2018-10-16T04:00:38.487Z,12.20
2018-10-16T04:03:07.962Z,12.00
2018-10-16T04:05:37.408Z,13.25
2018-10-16T04:08:06.846Z,12.33
2018-10-16T04:10:36.299Z,14.68
2018-10-16T04:13:06.289Z,14.60
2018-10-16T04:15:35.601Z,17.40
2018-10-16T04:18:05.215Z,14.78
2018-10-16T04:20:34.896Z,14.45
2018-10-16T04:23:04.400Z,13.68
2018-10-16T04:25:33.936Z,14.10
2018-10-16T04:28:03.376Z,12.98
2018-10-16T04:30:32.938Z,13.10
2018-10-16T04:33:02.559Z,15.05
2018-10-16T04:35:31.963Z,14.13
2018-10-16T04:38:01.420Z,15.83
2018-10-16T04:40:30.899Z,14.30
2018-10-16T04:43:00.438Z,13.93
2018-10-16T04:45:29.907Z,14.40
2018-10-16T04:47:59.493Z,15.60
2018-10-16T04:50:28.904Z,13.68
2018-10-16T04:52:58.350Z,14.87
2018-10-16T04:55:27.734Z,13.60
2018-10-16T04:57:57.168Z,16.40
2018-10-16T05:00:27.379Z,14.58
2018-10-16T05:02:58.897Z,15.18
2018-10-16T05:05:28.808Z,14.47
2018-10-16T05:07:58.266Z,14.63
2018-10-16T05:10:27.674Z,14.50
2018-10-16T05:12:57.036Z,15.05
2018-10-16T05:15:30.191Z,14.63
2018-10-16T05:17:59.693Z,13.88
2018-10-16T05:20:29.089Z,14.65
2018-10-16T05:22:59.588Z,13.80
2018-10-16T05:25:30.037Z,16.40
2018-10-16T05:27:59.498Z,13.38
2018-10-16T05:30:28.929Z,15.45
2018-10-16T05:32:58.374Z,14.05
2018-10-16T05:35:27.826Z,14.58
2018-10-16T05:37:57.198Z,14.00
2018-10-16T05:40:26.659Z,16.90
2018-10-16T05:42:56.043Z,13.75
2018-10-16T05:45:26.397Z,13.60
2018-10-16T05:47:55.861Z,13.80
2018-10-16T05:50:25.301Z,14.30
2018-10-16T05:52:54.727Z,15.58
2018-10-16T05:55:24.165Z,13.55
2018-10-16T05:57:53.542Z,13.93
2018-10-16T06:00:36.434Z,14.85
2018-10-16T06:03:06.066Z,14.20
2018-10-16T06:05:35.770Z,16.32
2018-10-16T06:08:05.550Z,15.50
2018-10-16T06:10:35.018Z,14.95
2018-10-16T06:13:04.418Z,15.43
2018-10-16T06:15:33.843Z,14.38
2018-10-16T06:18:03.271Z,16.20
2018-10-16T06:20:32.692Z,15.53
2018-10-16T06:23:02.318Z,14.65
2018-10-16T06:25:31.920Z,16.42
2018-10-16T06:28:15.524Z,15.50
2018-10-16T06:30:44.935Z,14.10
2018-10-16T06:33:15.762Z,15.25
2018-10-16T06:35:45.261Z,16.17
2018-10-16T06:38:14.685Z,17.02
2018-10-16T06:40:44.293Z,15.65
2018-10-16T06:43:13.623Z,15.88
2018-10-16T06:45:43.062Z,15.70
2018-10-16T06:48:12.651Z,16.05
2018-10-16T06:50:41.995Z,16.52
2018-10-16T06:53:11.541Z,14.70
2018-10-16T06:55:41.045Z,16.60
2018-10-16T06:58:10.515Z,15.70
2018-10-16T07:00:40.522Z,16.10
2018-10-16T07:03:10.082Z,17.30
2018-10-16T07:05:39.636Z,15.00
2018-10-16T07:08:09.092Z,16.02
2018-10-16T07:10:38.621Z,16.15
2018-10-16T07:13:08.011Z,16.45
2018-10-16T07:15:37.530Z,16.32
2018-10-16T07:18:07.214Z,16.85
2018-10-16T07:20:36.736Z,15.10
2018-10-16T07:23:06.145Z,16.85
2018-10-16T07:25:35.663Z,16.15
2018-10-16T07:28:05.178Z,17.45
2018-10-16T07:30:34.809Z,15.98
2018-10-16T07:33:04.340Z,15.63
2018-10-16T07:35:33.908Z,16.65
2018-10-16T07:38:03.551Z,16.97
2018-10-16T07:40:32.915Z,16.10
2018-10-16T07:43:02.558Z,16.00
2018-10-16T07:45:32.074Z,17.62
2018-10-16T07:48:01.625Z,17.10
2018-10-16T07:50:31.064Z,16.20
2018-10-16T07:53:00.505Z,17.15
2018-10-16T07:55:29.903Z,16.62
2018-10-16T07:57:59.418Z,16.10
2018-10-16T08:00:28.793Z,17.65
2018-10-16T08:02:58.324Z,15.63
2018-10-16T08:05:27.755Z,15.50
2018-10-16T08:08:01.455Z,15.18
2018-10-16T08:10:31.129Z,16.85
2018-10-16T08:13:00.757Z,18.37
2018-10-16T08:15:30.229Z,16.95
2018-10-16T08:17:59.796Z,16.40
2018-10-16T08:20:29.280Z,14.23
2018-10-16T08:22:58.696Z,15.98
2018-10-16T08:25:28.156Z,16.40
2018-10-16T08:27:57.807Z,18.25
2018-10-16T08:30:27.315Z,16.10
2018-10-16T08:32:57.317Z,17.15
2018-10-16T08:35:26.722Z,17.35
2018-10-16T08:40:11.507Z,16.57
2018-10-16T08:42:57.322Z,16.65
2018-10-16T08:45:43.895Z,17.40
2018-10-16T08:48:30.205Z,16.73
2018-10-16T08:51:16.689Z,17.25
2018-10-16T08:53:46.108Z,17.02
2018-10-16T08:56:15.578Z,16.55
2018-10-16T08:58:45.063Z,18.30
2018-10-16T09:01:14.522Z,17.15
2018-10-16T09:03:43.961Z,14.87
2018-10-16T09:06:13.555Z,17.25
2018-10-16T09:08:43.172Z,15.83
2018-10-16T09:11:12.679Z,16.05
2018-10-16T09:13:42.260Z,16.75
2018-10-16T09:16:11.647Z,17.15
2018-10-16T09:18:41.112Z,16.62
2018-10-16T09:21:10.511Z,17.05
2018-10-16T09:23:39.967Z,16.30
2018-10-16T09:26:09.478Z,15.00
2018-10-16T09:28:39.135Z,15.15
2018-10-16T09:31:09.359Z,14.90
2018-10-16T09:33:38.794Z,14.45
2018-10-16T09:36:08.521Z,14.15
2018-10-16T09:38:38.301Z,13.75
2018-10-16T09:41:07.891Z,14.53
2018-10-16T09:43:37.457Z,15.20
2018-10-16T09:46:06.948Z,15.68
2018-10-16T09:48:36.547Z,13.90
2018-10-16T09:51:06.255Z,15.75
2018-10-16T09:53:35.730Z,14.95
2018-10-16T09:56:05.633Z,15.13
2018-10-16T09:58:35.056Z,14.03
2018-10-16T10:01:09.719Z,16.10
2018-10-16T10:03:39.154Z,14.28
2018-10-16T10:06:08.597Z,13.35
2018-10-16T10:08:37.979Z,14.23
2018-10-16T10:11:07.609Z,14.98
2018-10-16T10:13:37.216Z,14.98
2018-10-16T10:16:07.172Z,12.98
2018-10-16T10:18:36.671Z,14.07
2018-10-16T10:21:06.113Z,14.25
2018-10-16T10:23:35.524Z,12.95
2018-10-16T10:26:04.949Z,13.75
2018-10-16T10:28:34.455Z,13.58
2018-10-16T10:31:03.984Z,12.30
2018-10-16T10:33:33.389Z,13.55
2018-10-16T10:36:02.738Z,14.58
2018-10-16T10:38:32.130Z,12.03
2018-10-16T10:41:01.851Z,13.40
2018-10-16T10:43:31.279Z,13.50
2018-10-16T10:46:00.675Z,12.63
2018-10-16T10:48:30.085Z,13.00
2018-10-16T10:50:59.816Z,12.05
2018-10-16T10:53:28.983Z,12.95
2018-10-16T10:55:58.482Z,12.90
2018-10-16T10:58:28.024Z,12.82
2018-10-16T11:00:57.422Z,11.90
2018-10-16T11:03:26.960Z,11.28
2018-10-16T11:05:56.231Z,11.10
2018-10-16T11:08:25.613Z,11.60
2018-10-16T11:10:55.056Z,11.78
2018-10-16T11:13:24.463Z,9.20
2018-10-16T11:15:53.911Z,10.20
2018-10-16T11:18:23.344Z,10.32
2018-10-16T11:20:52.816Z,11.15
2018-10-16T11:23:22.235Z,10.20
2018-10-16T11:25:51.600Z,10.32
2018-10-16T11:28:21.053Z,9.73
2018-10-16T11:30:50.529Z,10.78
2018-10-16T11:33:20.025Z,9.90
2018-10-16T11:35:49.536Z,10.03
2018-10-16T11:38:19.017Z,9.65
2018-10-16T11:40:48.435Z,10.23
2018-10-16T11:43:17.821Z,10.15
2018-10-16T11:45:47.270Z,9.63
2018-10-16T11:48:16.701Z,9.75
2018-10-16T11:50:46.155Z,9.70
2018-10-16T11:53:15.535Z,9.63
2018-10-16T11:55:45.267Z,9.88
2018-10-16T11:58:14.706Z,9.55
2018-10-16T12:00:44.101Z,9.20
2018-10-16T12:03:13.486Z,8.70
2018-10-16T12:05:42.908Z,9.55
2018-10-16T12:08:13.592Z,8.75
2018-10-16T12:10:43.379Z,8.73
2018-10-16T12:13:13.762Z,9.33
2018-10-16T12:15:43.364Z,9.65
2018-10-16T12:19:18.260Z,8.28
2018-10-16T12:21:47.576Z,8.18
2018-10-16T12:24:17.026Z,8.20
2018-10-16T12:26:46.402Z,8.55
2018-10-16T12:29:15.783Z,8.55
2018-10-16T12:31:45.172Z,8.08
2018-10-16T12:34:14.539Z,8.73
2018-10-16T12:36:44.027Z,8.20
2018-10-16T12:39:14.428Z,9.43
2018-10-16T12:41:43.798Z,9.35
2018-10-16T12:44:13.211Z,9.13
2018-10-16T12:46:42.675Z,8.75
2018-10-16T12:49:12.062Z,8.35
2018-10-16T12:51:41.498Z,9.38
2018-10-16T12:54:10.965Z,8.80
2018-10-16T12:56:40.307Z,10.18
2018-10-16T12:59:13.542Z,10.05
2018-10-16T13:01:42.914Z,9.05
2018-10-16T13:04:12.443Z,9.35
2018-10-16T13:06:42.319Z,10.08
2018-10-16T13:09:12.623Z,9.65
2018-10-16T13:11:42.924Z,9.60
2018-10-16T13:16:41.074Z,10.20
2018-10-16T13:19:10.469Z,9.00
2018-10-16T13:21:39.809Z,10.20
2018-10-16T13:26:37.990Z,9.63
2018-10-16T13:29:07.469Z,10.00
2018-10-16T13:31:36.837Z,10.15
2018-10-16T13:34:06.551Z,10.40
2018-10-16T13:36:35.887Z,9.80
2018-10-16T13:39:07.641Z,8.80
2018-10-16T13:41:37.059Z,9.70
2018-10-16T13:44:06.539Z,9.43
2018-10-16T13:46:35.997Z,8.93
2018-10-16T13:49:05.777Z,10.05
2018-10-16T13:51:35.205Z,9.30
2018-10-16T13:54:04.814Z,9.35
2018-10-16T13:56:34.295Z,9.00
2018-10-16T13:59:03.778Z,9.43
2018-10-16T14:01:33.127Z,8.73
2018-10-16T14:04:02.559Z,8.75
2018-10-16T14:06:31.950Z,9.33
2018-10-16T14:09:01.335Z,9.20
2018-10-16T14:11:30.692Z,7.50
2018-10-16T14:14:00.119Z,8.15
2018-10-16T14:16:29.525Z,8.50
2018-10-16T14:18:58.874Z,8.40
2018-10-16T14:21:28.823Z,8.35
2018-10-16T14:23:58.183Z,9.40
2018-10-16T14:26:27.621Z,9.10
2018-10-16T14:28:56.958Z,8.20
2018-10-16T14:31:26.410Z,8.40
2018-10-16T14:36:24.431Z,8.70
2018-10-16T14:38:54.120Z,7.92
2018-10-16T14:41:23.496Z,9.47
2018-10-16T14:43:52.962Z,7.65
2018-10-16T14:46:22.422Z,7.12
2018-10-16T14:48:51.775Z,8.10
2018-10-16T14:51:21.216Z,8.20
2018-10-16T14:53:50.642Z,7.37
2018-10-16T14:56:20.018Z,8.70
2018-10-16T14:58:49.378Z,7.60
2018-10-16T15:01:18.754Z,7.87
2018-10-16T15:03:48.162Z,8.50
2018-10-16T15:06:17.527Z,8.80
2018-10-16T15:08:46.939Z,7.45
2018-10-16T15:11:16.336Z,8.00
2018-10-16T15:16:14.750Z,7.85
2018-10-16T15:21:12.780Z,7.00
2018-10-16T15:26:10.921Z,7.80
2018-10-16T15:28:40.255Z,7.30
2018-10-16T15:33:39.179Z,7.97
2018-10-16T15:43:35.027Z,7.30
2018-10-16T16:25:49.151Z,9.55
2018-10-16T16:46:49.425Z,9.57
2018-10-16T16:54:16.733Z,10.40
2018-10-16T17:01:43.587Z,12.47
2018-10-16T17:04:13.086Z,11.50
2018-10-16T17:06:42.380Z,11.75
2018-10-16T17:09:13.314Z,12.25
2018-10-16T17:16:40.201Z,13.03
2018-10-16T17:19:09.693Z,11.85
2018-10-16T17:21:39.248Z,12.10
2018-10-16T17:24:08.716Z,12.18
2018-10-16T17:26:38.251Z,11.68
2018-10-16T17:29:07.782Z,11.85
2018-10-16T17:31:37.245Z,13.28
2018-10-16T17:34:07.431Z,11.85
2018-10-16T17:36:36.780Z,11.22
2018-10-16T17:39:09.253Z,11.95
2018-10-16T17:41:38.654Z,12.40
2018-10-16T17:44:08.676Z,11.03
2018-10-16T17:46:38.182Z,13.32
2018-10-16T17:49:08.076Z,12.60
2018-10-16T17:51:37.503Z,13.22
2018-10-16T17:54:06.928Z,12.82
2018-10-16T17:56:37.178Z,13.03
2018-10-16T17:59:06.869Z,13.35
2018-10-16T18:01:36.364Z,12.18
2018-10-16T18:04:06.174Z,12.00
2018-10-16T18:06:35.642Z,11.60
2018-10-16T18:09:06.632Z,11.15
2018-10-16T18:11:36.400Z,11.90
2018-10-16T18:14:06.407Z,11.93
2018-10-16T18:16:35.832Z,12.40
2018-10-16T18:19:05.292Z,13.35
2018-10-16T18:21:34.807Z,13.75
2018-10-16T18:24:04.650Z,13.53
2018-10-16T18:26:34.066Z,14.47
2018-10-16T18:29:03.712Z,14.80
2018-10-16T18:31:33.255Z,15.38
2018-10-16T18:34:02.734Z,12.85
2018-10-16T18:36:32.179Z,15.83
2018-10-16T18:39:01.895Z,15.55
2018-10-16T18:41:31.326Z,16.37
2018-10-16T18:44:00.719Z,17.12
2018-10-16T18:46:30.239Z,16.75
2018-10-16T18:48:59.700Z,15.58
2018-10-16T18:51:29.926Z,17.55
2018-10-16T18:53:59.725Z,13.98
2018-10-16T18:56:30.151Z,15.65
2018-10-16T18:59:00.709Z,12.25
2018-10-16T19:01:30.219Z,13.32
2018-10-16T19:03:59.763Z,19.17
2018-10-16T19:06:29.311Z,17.45
2018-10-16T19:08:58.966Z,18.60
2018-10-16T19:11:28.415Z,19.05
2018-10-16T19:13:58.903Z,22.25
2018-10-16T19:16:28.620Z,18.73
2018-10-16T19:18:58.160Z,14.70
2018-10-16T19:21:27.885Z,16.00
2018-10-16T19:24:01.016Z,16.05
2018-10-16T19:26:30.727Z,18.25
2018-10-16T19:29:00.190Z,16.48
2018-10-16T19:31:29.737Z,17.65
2018-10-16T19:33:59.344Z,18.10
2018-10-16T19:36:29.025Z,16.30
2018-10-16T19:38:58.610Z,13.55
2018-10-16T19:41:28.169Z,18.40
2018-10-16T19:43:57.816Z,20.97
2018-10-16T19:46:27.639Z,18.20
2018-10-16T19:48:57.170Z,16.20
2018-10-16T19:51:26.693Z,15.15
2018-10-16T19:53:56.231Z,19.52
2018-10-16T19:56:25.619Z,22.37
2018-10-16T19:58:55.180Z,19.57
2018-10-16T20:01:24.669Z,18.55
2018-10-16T20:03:54.209Z,23.20
2018-10-16T20:06:23.732Z,18.00
2018-10-16T20:08:53.256Z,17.45
2018-10-16T20:11:22.840Z,16.90
2018-10-16T20:13:52.360Z,14.68
2018-10-16T20:16:21.902Z,16.85
2018-10-16T20:18:51.588Z,16.20
2018-10-16T20:21:21.060Z,13.68
2018-10-16T20:23:50.475Z,12.23
2018-10-16T20:26:19.945Z,13.90
2018-10-16T20:28:49.446Z,12.78
2018-10-16T20:31:18.889Z,12.55
2018-10-16T20:33:48.334Z,13.13
2018-10-16T20:36:17.817Z,11.83
2018-10-16T20:38:47.290Z,14.40
2018-10-16T20:41:16.700Z,15.93
2018-10-16T20:43:46.157Z,15.50
2018-10-16T20:46:15.596Z,15.05
2018-10-16T20:48:45.315Z,16.10
2018-10-16T20:51:14.806Z,16.97
2018-10-16T20:53:44.402Z,14.80
2018-10-16T20:56:13.833Z,15.55
2018-10-16T20:58:43.317Z,14.95
2018-10-16T21:01:14.120Z,14.35
2018-10-16T21:03:43.472Z,15.70
2018-10-16T21:06:13.372Z,13.60
2018-10-16T21:08:42.653Z,15.00
2018-10-16T21:11:12.080Z,15.80
2018-10-16T21:13:41.536Z,14.30
2018-10-16T21:16:11.021Z,13.60
2018-10-16T21:18:40.575Z,15.23
2018-10-16T21:21:10.027Z,14.78
2018-10-16T21:23:39.458Z,14.43
2018-10-16T21:26:09.071Z,14.35
2018-10-16T21:28:38.662Z,14.43
2018-10-16T21:31:08.291Z,13.70
2018-10-16T21:33:37.729Z,14.90
2018-10-16T21:36:07.539Z,14.75
2018-10-16T21:38:37.073Z,12.60
2018-10-16T21:41:06.572Z,14.43
2018-10-16T21:43:35.871Z,13.62
2018-10-16T21:46:06.221Z,14.18
2018-10-16T21:48:35.669Z,13.00
2018-10-16T21:51:05.140Z,15.38
2018-10-16T21:53:34.637Z,14.68
2018-10-16T21:56:04.050Z,13.75
2018-10-16T21:58:33.554Z,13.32
2018-10-16T22:01:09.532Z,14.98
2018-10-16T22:03:39.469Z,13.72
2018-10-16T22:06:08.928Z,13.72
2018-10-16T22:08:38.294Z,14.43
2018-10-16T22:11:07.831Z,13.60
2018-10-16T22:13:37.176Z,13.50
2018-10-16T22:16:06.632Z,14.05
2018-10-16T22:18:36.043Z,14.55
2018-10-16T22:21:05.679Z,13.03
2018-10-16T22:23:35.164Z,14.60
2018-10-16T22:26:04.563Z,16.10
2018-10-16T22:28:33.968Z,13.28
2018-10-16T22:31:03.505Z,13.20
2018-10-16T22:33:32.936Z,13.98
2018-10-16T22:36:02.391Z,13.68
2018-10-16T22:38:31.771Z,13.03
2018-10-16T22:41:01.341Z,13.73
2018-10-16T22:43:30.835Z,14.80
2018-10-16T22:46:00.367Z,13.40
2018-10-16T22:48:29.898Z,13.32
2018-10-16T22:50:59.503Z,13.85
2018-10-16T22:53:28.891Z,14.18
2018-10-16T22:55:58.290Z,15.48
2018-10-16T22:58:27.688Z,14.30
2018-10-16T23:00:57.135Z,13.72
2018-10-16T23:03:26.405Z,13.63
2018-10-16T23:05:55.846Z,13.47
2018-10-16T23:08:25.219Z,13.95
2018-10-16T23:10:54.611Z,15.00
2018-10-16T23:13:24.025Z,14.00
2018-10-16T23:15:53.450Z,15.18
2018-10-16T23:18:22.828Z,14.73
2018-10-16T23:20:52.295Z,16.07
2018-10-16T23:23:21.695Z,14.37
2018-10-16T23:25:51.156Z,13.18
2018-10-16T23:28:20.527Z,14.58
2018-10-16T23:30:50.021Z,14.17
2018-10-16T23:33:19.403Z,14.50
2018-10-16T23:35:48.859Z,13.25
2018-10-16T23:38:18.254Z,13.18
2018-10-16T23:40:47.765Z,13.10
2018-10-16T23:43:17.224Z,13.95
2018-10-16T23:45:46.548Z,13.05
2018-10-16T23:48:16.049Z,15.37
2018-10-16T23:50:45.457Z,14.38
2018-10-16T23:53:15.003Z,14.15
2018-10-16T23:55:44.416Z,15.40
2018-10-16T23:58:13.790Z,15.25
